createdAt,value
2023-04-09T00:01:22.457Z,36.07
2023-04-09T00:03:50.141Z,39.27
2023-04-09T00:06:17.743Z,36.67
2023-04-09T00:08:45.330Z,36.20
2023-04-09T00:11:12.917Z,39.73
2023-04-09T00:13:40.580Z,37.93
2023-04-09T00:16:08.499Z,39.63
2023-04-09T00:18:36.320Z,36.07
2023-04-09T00:21:03.841Z,41.93
2023-04-09T00:23:31.433Z,37.77
2023-04-09T00:25:58.957Z,38.43
2023-04-09T00:28:26.499Z,38.13
2023-04-09T00:30:54.043Z,36.70
2023-04-09T00:33:21.624Z,38.50
2023-04-09T00:35:49.185Z,39.37
2023-04-09T00:38:16.779Z,38.73
2023-04-09T00:40:44.408Z,40.90
2023-04-09T00:43:12.026Z,38.73
2023-04-09T00:45:39.650Z,43.80
2023-04-09T00:48:07.580Z,38.27
2023-04-09T00:50:35.188Z,43.70
2023-04-09T00:53:02.866Z,39.87
2023-04-09T00:55:30.799Z,41.43
2023-04-09T00:57:58.430Z,45.00
2023-04-09T01:00:26.133Z,41.77
2023-04-09T01:02:53.809Z,37.63
2023-04-09T01:05:21.429Z,44.50
2023-04-09T01:08:07.755Z,46.27
2023-04-09T01:10:55.568Z,43.43
2023-04-09T01:13:30.975Z,50.30
2023-04-09T01:16:01.061Z,46.07
2023-04-09T01:18:36.266Z,42.23
2023-04-09T01:21:06.740Z,44.40
2023-04-09T01:23:53.097Z,48.17
2023-04-09T01:26:39.603Z,49.97
2023-04-09T01:29:07.886Z,47.43
2023-04-09T01:31:37.040Z,43.50
2023-04-09T01:34:05.763Z,45.80
2023-04-09T01:36:34.101Z,46.83
2023-04-09T01:39:02.563Z,47.67
2023-04-09T01:41:31.751Z,49.07
2023-04-09T01:44:00.984Z,45.43
2023-04-09T01:46:28.700Z,45.17
2023-04-09T01:48:56.810Z,45.33
2023-04-09T01:51:24.439Z,51.60
2023-04-09T01:53:51.988Z,49.37
2023-04-09T01:56:19.520Z,50.67
2023-04-09T01:58:47.109Z,46.97
2023-04-09T02:01:23.616Z,46.73
2023-04-09T02:03:59.141Z,50.13
2023-04-09T02:06:26.726Z,45.80
2023-04-09T02:08:54.440Z,45.07
2023-04-09T02:11:24.254Z,47.27
2023-04-09T02:13:54.591Z,49.50
2023-04-09T02:16:22.380Z,52.30
2023-04-09T02:18:54.059Z,50.87
2023-04-09T02:21:22.832Z,52.60
2023-04-09T02:23:50.922Z,51.73
2023-04-09T02:26:18.442Z,47.23
2023-04-09T02:28:46.036Z,48.67
2023-04-09T02:31:13.838Z,46.23
2023-04-09T02:33:41.414Z,47.67
2023-04-09T02:36:12.065Z,52.47
2023-04-09T02:38:46.065Z,48.57
2023-04-09T02:41:13.739Z,50.37
2023-04-09T02:43:41.331Z,45.17
2023-04-09T02:46:08.915Z,49.93
2023-04-09T02:48:39.305Z,48.33
2023-04-09T02:51:06.887Z,49.73
2023-04-09T02:53:34.380Z,52.83
2023-04-09T02:56:01.964Z,44.43
2023-04-09T02:58:29.479Z,50.50
2023-04-09T03:00:57.033Z,47.60
2023-04-09T03:03:24.694Z,50.47
2023-04-09T03:05:52.364Z,49.63
2023-04-09T03:08:19.888Z,50.50
2023-04-09T03:10:47.490Z,52.20
2023-04-09T03:13:15.269Z,50.03
2023-04-09T03:15:42.877Z,54.67
2023-04-09T03:18:10.394Z,53.80
2023-04-09T03:20:38.640Z,47.20
2023-04-09T03:23:06.337Z,52.77
2023-04-09T03:25:33.918Z,46.77
2023-04-09T03:28:01.467Z,47.90
2023-04-09T03:30:29.037Z,52.27
2023-04-09T03:32:56.604Z,54.87
2023-04-09T03:35:24.292Z,54.60
2023-04-09T03:37:51.782Z,57.53
2023-04-09T03:40:19.340Z,55.30
2023-04-09T03:42:46.866Z,57.67
2023-04-09T03:45:14.433Z,54.30
2023-04-09T03:47:41.953Z,58.70
2023-04-09T03:50:09.755Z,53.90
2023-04-09T03:52:37.253Z,59.20
2023-04-09T03:55:04.847Z,59.80
2023-04-09T03:57:32.404Z,59.37
2023-04-09T03:59:59.988Z,54.60
2023-04-09T04:02:27.662Z,56.70
2023-04-09T04:04:55.348Z,54.77
2023-04-09T04:07:22.834Z,55.03
2023-04-09T04:09:50.410Z,60.00
2023-04-09T04:12:17.929Z,56.60
2023-04-09T04:14:45.561Z,59.87
2023-04-09T04:17:13.070Z,58.23
2023-04-09T04:19:40.702Z,56.27
2023-04-09T04:22:08.207Z,54.43
2023-04-09T04:24:35.752Z,57.27
2023-04-09T04:27:03.240Z,59.80
2023-04-09T04:29:30.838Z,56.77
2023-04-09T04:31:58.551Z,59.27
2023-04-09T04:34:26.193Z,57.80
2023-04-09T04:36:53.742Z,56.87
2023-04-09T04:39:21.257Z,61.63
2023-04-09T04:41:48.778Z,63.20
2023-04-09T04:44:16.298Z,59.73
2023-04-09T04:46:43.811Z,69.30
2023-04-09T04:49:11.322Z,69.00
2023-04-09T04:51:38.849Z,59.63
2023-04-09T04:54:06.451Z,65.47
2023-04-09T04:56:33.977Z,62.80
2023-04-09T04:59:01.551Z,64.07
2023-04-09T05:01:29.644Z,67.73
2023-04-09T05:03:57.287Z,61.20
2023-04-09T05:06:24.842Z,60.83
2023-04-09T05:08:52.637Z,60.73
2023-04-09T05:11:21.428Z,62.93
2023-04-09T05:13:49.033Z,60.47
2023-04-09T05:16:22.436Z,58.00
2023-04-09T05:18:50.457Z,54.93
2023-04-09T05:21:18.176Z,62.57
2023-04-09T05:23:45.705Z,57.83
2023-04-09T05:26:13.360Z,55.67
2023-04-09T05:28:40.860Z,63.13
2023-04-09T05:31:08.438Z,46.53
2023-04-09T05:33:36.028Z,47.30
2023-04-09T05:36:04.970Z,46.27
2023-04-09T05:38:32.518Z,45.23
2023-04-09T05:41:00.012Z,40.17
2023-04-09T05:43:27.592Z,40.60
2023-04-09T05:45:55.116Z,39.07
2023-04-09T05:48:22.643Z,38.20
2023-04-09T05:50:55.381Z,36.47
2023-04-09T05:53:23.617Z,32.63
2023-04-09T05:55:51.120Z,33.53
2023-04-09T05:58:18.841Z,33.83
2023-04-09T06:00:46.459Z,31.83
2023-04-09T06:03:14.312Z,32.90
2023-04-09T06:05:41.905Z,30.20
2023-04-09T06:08:09.496Z,30.73
2023-04-09T06:10:37.006Z,32.37
2023-04-09T06:13:04.545Z,33.10
2023-04-09T06:15:32.108Z,34.50
2023-04-09T06:17:59.728Z,32.97
2023-04-09T06:20:27.313Z,34.20
2023-04-09T06:22:54.959Z,35.87
2023-04-09T06:25:22.743Z,35.63
2023-04-09T06:27:50.277Z,32.90
2023-04-09T06:30:17.830Z,35.37
2023-04-09T06:32:53.833Z,32.93
2023-04-09T06:35:22.917Z,35.90
2023-04-09T06:37:50.473Z,35.33
2023-04-09T06:40:19.648Z,34.13
2023-04-09T06:42:48.264Z,32.33
2023-04-09T06:45:15.776Z,35.93
2023-04-09T06:47:43.354Z,32.50
2023-04-09T06:50:10.967Z,32.23
2023-04-09T06:52:38.507Z,32.13
2023-04-09T06:55:06.287Z,31.60
2023-04-09T06:57:33.807Z,32.37
2023-04-09T07:00:01.344Z,27.67
2023-04-09T07:02:29.162Z,29.50
2023-04-09T07:04:56.927Z,29.73
2023-04-09T07:07:25.839Z,28.80
2023-04-09T07:09:53.782Z,28.47
2023-04-09T07:12:31.324Z,27.10
2023-04-09T07:15:02.764Z,26.53
2023-04-09T07:17:31.688Z,28.53
2023-04-09T07:19:59.204Z,26.10
2023-04-09T07:22:27.493Z,24.60
2023-04-09T07:24:55.031Z,24.40
2023-04-09T07:27:26.752Z,24.03
2023-04-09T07:29:58.454Z,25.30
2023-04-09T07:32:26.541Z,22.20
2023-04-09T07:34:54.690Z,21.73
2023-04-09T07:37:22.440Z,20.07
2023-04-09T07:39:50.389Z,17.70
2023-04-09T07:42:18.021Z,17.87
2023-04-09T07:44:45.552Z,16.77
2023-04-09T07:47:13.146Z,17.97
2023-04-09T07:49:41.076Z,16.77
2023-04-09T07:52:08.688Z,17.00
2023-04-09T07:54:36.280Z,16.30
2023-04-09T07:57:04.201Z,15.43
2023-04-09T07:59:31.874Z,16.73
2023-04-09T08:02:00.029Z,16.17
2023-04-09T08:04:27.981Z,13.23
2023-04-09T08:06:55.795Z,13.60
2023-04-09T08:09:23.594Z,15.60
2023-04-09T08:11:51.215Z,15.67
2023-04-09T08:14:21.833Z,13.20
2023-04-09T08:16:51.118Z,15.87
2023-04-09T08:19:19.553Z,16.53
2023-04-09T08:21:48.234Z,16.57
2023-04-09T08:24:15.791Z,22.37
2023-04-09T08:26:43.348Z,14.57
2023-04-09T08:29:11.611Z,14.10
2023-04-09T08:34:52.753Z,16.37
2023-04-09T08:37:20.267Z,13.50
2023-04-09T08:39:47.843Z,12.80
2023-04-09T08:42:15.672Z,12.80
2023-04-09T08:44:44.246Z,14.37
2023-04-09T08:47:12.162Z,17.10
2023-04-09T08:49:40.475Z,15.80
2023-04-09T08:52:08.286Z,14.03
2023-04-09T08:54:36.149Z,16.47
2023-04-09T08:57:07.111Z,13.40
2023-04-09T08:59:34.758Z,13.47
2023-04-09T09:02:09.328Z,15.40
2023-04-09T09:04:50.234Z,14.37
2023-04-09T09:07:19.228Z,17.10
2023-04-09T09:09:53.357Z,14.17
2023-04-09T09:12:34.675Z,14.07
2023-04-09T09:15:02.743Z,14.70
2023-04-09T09:17:30.343Z,15.00
2023-04-09T09:19:58.542Z,14.73
2023-04-09T09:22:26.179Z,13.17
2023-04-09T09:24:53.889Z,13.07
2023-04-09T09:27:33.500Z,12.90
2023-04-09T09:30:02.308Z,12.30
2023-04-09T09:32:30.035Z,10.90
2023-04-09T09:35:02.680Z,11.00
2023-04-09T09:37:30.681Z,11.50
2023-04-09T09:39:58.885Z,8.33
2023-04-09T09:42:26.644Z,7.53
2023-04-09T09:44:55.206Z,6.93
2023-04-09T09:47:23.619Z,10.13
2023-04-09T09:49:51.851Z,8.97
2023-04-09T09:52:22.053Z,8.03
2023-04-09T09:54:52.314Z,8.23
2023-04-09T09:57:20.512Z,9.27
2023-04-09T09:59:51.520Z,9.27
2023-04-09T10:02:19.943Z,8.43
2023-04-09T10:04:49.585Z,8.90
2023-04-09T10:07:17.667Z,7.20
2023-04-09T10:09:49.474Z,7.63
2023-04-09T10:12:17.328Z,7.77
2023-04-09T10:14:45.620Z,7.77
2023-04-09T10:17:13.303Z,7.50
2023-04-09T10:19:47.997Z,8.37
2023-04-09T10:22:18.801Z,10.10
2023-04-09T10:24:46.593Z,7.97
2023-04-09T10:27:16.664Z,9.63
2023-04-09T10:29:45.960Z,8.17
2023-04-09T10:32:14.271Z,7.30
2023-04-09T10:34:42.616Z,7.53
2023-04-09T10:37:11.267Z,5.37
2023-04-09T10:39:45.489Z,7.63
2023-04-09T10:42:21.436Z,6.90
2023-04-09T10:45:05.096Z,7.17
2023-04-09T10:47:33.883Z,5.60
2023-04-09T10:50:21.470Z,7.20
2023-04-09T10:52:53.194Z,6.63
2023-04-09T10:55:36.072Z,7.87
2023-04-09T10:58:04.518Z,7.37
2023-04-09T11:00:32.132Z,8.10
2023-04-09T11:03:07.131Z,9.05
2023-04-09T11:05:35.679Z,8.37
2023-04-09T11:08:13.419Z,7.40
2023-04-09T11:10:45.254Z,8.53
2023-04-09T11:13:13.362Z,7.33
2023-04-09T11:15:41.123Z,9.07
2023-04-09T11:18:08.857Z,7.97
2023-04-09T11:20:36.825Z,8.17
2023-04-09T11:23:04.469Z,7.83
2023-04-09T11:25:32.685Z,7.43
2023-04-09T11:28:00.623Z,7.67
2023-04-09T11:30:28.274Z,7.40
2023-04-09T11:32:56.340Z,7.50
2023-04-09T11:35:24.086Z,7.30
2023-04-09T11:37:51.656Z,6.23
2023-04-09T11:40:26.595Z,8.87
2023-04-09T11:42:54.853Z,5.07
2023-04-09T11:45:26.423Z,6.77
2023-04-09T11:47:54.619Z,7.03
2023-04-09T11:50:22.525Z,7.00
2023-04-09T11:52:50.663Z,6.43
2023-04-09T11:55:25.144Z,7.53
2023-04-09T11:57:53.996Z,7.00
2023-04-09T12:00:21.838Z,7.00
2023-04-09T12:02:50.231Z,8.77
2023-04-09T12:05:25.550Z,7.37
2023-04-09T12:07:56.671Z,8.50
2023-04-09T12:10:27.846Z,6.70
2023-04-09T12:12:55.498Z,7.80
2023-04-09T12:15:24.467Z,8.80
2023-04-09T12:17:58.928Z,6.03
2023-04-09T12:20:30.530Z,7.10
2023-04-09T12:22:58.921Z,8.07
2023-04-09T12:25:26.729Z,8.40
2023-04-09T12:27:54.591Z,8.37
2023-04-09T12:30:22.217Z,9.43
2023-04-09T12:32:49.838Z,6.50
2023-04-09T12:35:17.436Z,8.37
2023-04-09T12:37:45.114Z,8.57
2023-04-09T12:40:12.761Z,12.33
2023-04-09T12:42:41.197Z,8.73
2023-04-09T12:45:10.963Z,8.73
2023-04-09T12:47:38.898Z,7.90
2023-04-09T12:50:07.189Z,8.93
2023-04-09T12:52:34.817Z,8.97
2023-04-09T12:55:02.952Z,8.17
2023-04-09T12:57:30.652Z,7.60
2023-04-09T12:59:58.649Z,8.47
2023-04-09T13:02:26.413Z,7.77
2023-04-09T13:04:54.105Z,9.73
2023-04-09T13:07:21.755Z,7.00
2023-04-09T13:09:49.624Z,7.70
2023-04-09T13:12:17.622Z,7.63
2023-04-09T13:14:47.270Z,8.73
2023-04-09T13:17:15.706Z,8.30
2023-04-09T13:19:43.331Z,7.93
2023-04-09T13:22:11.005Z,8.33
2023-04-09T13:24:38.948Z,9.93
2023-04-09T13:27:07.043Z,7.57
2023-04-09T13:29:34.646Z,7.53
2023-04-09T13:32:02.276Z,7.43
2023-04-09T13:34:29.816Z,8.27
2023-04-09T13:36:57.378Z,9.00
2023-04-09T13:39:24.964Z,8.33
2023-04-09T13:41:52.602Z,8.20
2023-04-09T13:44:20.194Z,7.77
2023-04-09T13:46:48.094Z,8.00
2023-04-09T13:49:15.650Z,8.13
2023-04-09T13:51:43.248Z,7.53
2023-04-09T13:54:10.821Z,8.37
2023-04-09T13:56:38.941Z,7.40
2023-04-09T13:59:06.533Z,8.10
2023-04-09T14:01:34.849Z,7.30
2023-04-09T14:04:02.785Z,10.37
2023-04-09T14:06:30.490Z,9.47
2023-04-09T14:08:58.086Z,9.90
2023-04-09T14:11:25.752Z,8.93
2023-04-09T14:13:54.530Z,8.87
2023-04-09T14:16:22.467Z,8.27
2023-04-09T14:18:50.103Z,9.63
2023-04-09T14:21:17.835Z,8.83
2023-04-09T14:23:45.708Z,7.53
2023-04-09T14:26:14.146Z,7.00
2023-04-09T14:28:41.673Z,6.73
2023-04-09T14:31:09.508Z,6.40
2023-04-09T14:33:37.122Z,6.50
2023-04-09T14:36:04.872Z,8.73
2023-04-09T14:38:32.828Z,7.37
2023-04-09T14:41:00.491Z,7.13
2023-04-09T14:43:28.072Z,7.03
2023-04-09T14:45:55.821Z,7.53
2023-04-09T14:48:23.531Z,6.13
2023-04-09T14:50:51.216Z,7.93
2023-04-09T14:53:18.936Z,7.07
2023-04-09T14:55:46.609Z,6.33
2023-04-09T14:58:14.194Z,6.63
2023-04-09T15:00:41.808Z,6.57
2023-04-09T15:03:09.586Z,6.17
2023-04-09T15:05:37.401Z,6.97
2023-04-09T15:08:05.118Z,5.90
2023-04-09T15:10:33.558Z,6.23
2023-04-09T15:13:01.275Z,6.43
2023-04-09T15:15:29.136Z,6.13
2023-04-09T15:17:56.903Z,6.27
2023-04-09T15:20:24.566Z,6.47
2023-04-09T15:22:52.814Z,6.50
2023-04-09T15:25:21.995Z,6.13
2023-04-09T15:27:49.735Z,5.83
2023-04-09T15:30:17.421Z,8.07
2023-04-09T15:32:44.972Z,7.07
2023-04-09T15:35:12.776Z,7.03
2023-04-09T15:37:40.563Z,6.67
2023-04-09T15:40:08.543Z,6.97
2023-04-09T15:42:36.279Z,7.10
2023-04-09T15:45:04.002Z,8.27
2023-04-09T15:47:33.176Z,7.63
2023-04-09T15:50:01.412Z,7.20
2023-04-09T15:52:28.992Z,6.20
2023-04-09T15:54:56.746Z,6.20
2023-04-09T15:57:24.411Z,9.77
2023-04-09T15:59:53.078Z,5.83
2023-04-09T16:02:20.779Z,9.90
2023-04-09T16:04:48.578Z,5.87
2023-04-09T16:07:16.235Z,6.17
2023-04-09T16:09:43.950Z,7.03
2023-04-09T16:12:11.551Z,7.70
2023-04-09T16:14:39.228Z,7.07
2023-04-09T16:17:06.950Z,5.80
2023-04-09T16:19:34.625Z,5.63
2023-04-09T16:22:02.973Z,4.73
2023-04-09T16:24:30.913Z,6.17
2023-04-09T16:26:58.653Z,5.77
2023-04-09T16:29:26.309Z,6.33
2023-04-09T16:31:54.045Z,5.57
2023-04-09T16:34:21.933Z,5.53
2023-04-09T16:36:50.345Z,6.73
2023-04-09T16:39:19.415Z,6.20
2023-04-09T16:41:47.110Z,6.20
2023-04-09T16:44:14.833Z,7.23
2023-04-09T16:46:42.433Z,5.63
2023-04-09T16:49:10.522Z,6.53
2023-04-09T16:51:38.074Z,5.80
2023-04-09T16:54:09.331Z,7.13
2023-04-09T16:56:42.468Z,6.17
2023-04-09T16:59:10.216Z,7.30
2023-04-09T17:01:37.976Z,5.47
2023-04-09T17:04:05.718Z,6.17
2023-04-09T17:06:33.395Z,5.40
2023-04-09T17:09:00.978Z,5.43
2023-04-09T17:11:28.566Z,6.17
2023-04-09T17:13:56.424Z,5.03
2023-04-09T17:16:24.245Z,5.20
2023-04-09T17:18:52.718Z,7.33
2023-04-09T17:21:20.884Z,6.10
2023-04-09T17:23:48.658Z,6.33
2023-04-09T17:26:16.270Z,5.80
2023-04-09T17:28:44.879Z,5.63
2023-04-09T17:31:13.557Z,6.13
2023-04-09T17:33:41.255Z,6.13
2023-04-09T17:36:11.012Z,5.73
2023-04-09T17:38:38.829Z,5.70
2023-04-09T17:41:07.695Z,5.33
2023-04-09T17:43:35.585Z,5.80
2023-04-09T17:46:03.493Z,5.90
2023-04-09T17:48:32.083Z,5.90
2023-04-09T17:50:59.831Z,6.03
2023-04-09T17:53:27.601Z,5.90
2023-04-09T17:55:55.255Z,4.60
2023-04-09T17:58:22.910Z,5.37
2023-04-09T18:00:50.529Z,4.30
2023-04-09T18:03:18.323Z,4.93
2023-04-09T18:05:46.207Z,5.53
2023-04-09T18:08:14.090Z,4.20
2023-04-09T18:10:41.770Z,5.10
2023-04-09T18:13:10.042Z,4.73
2023-04-09T18:15:37.970Z,4.13
2023-04-09T18:18:05.667Z,3.73
2023-04-09T18:20:33.239Z,4.63
2023-04-09T18:23:00.878Z,6.07
2023-04-09T18:25:28.454Z,5.47
2023-04-09T18:27:56.229Z,5.00
2023-04-09T18:30:23.813Z,4.70
2023-04-09T18:32:51.699Z,7.40
2023-04-09T18:35:19.578Z,5.47
2023-04-09T18:37:47.228Z,6.60
2023-04-09T18:40:14.987Z,4.33
2023-04-09T18:42:42.898Z,3.73
2023-04-09T18:45:12.307Z,5.80
2023-04-09T18:47:40.171Z,4.87
2023-04-09T18:50:08.161Z,5.27
2023-04-09T18:52:35.774Z,5.93
2023-04-09T18:55:05.804Z,5.10
2023-04-09T18:57:33.462Z,4.53
2023-04-09T19:00:01.454Z,4.63
2023-04-09T19:02:29.473Z,5.27
2023-04-09T19:04:57.256Z,4.20
2023-04-09T19:07:24.951Z,4.73
2023-04-09T19:09:52.807Z,4.70
2023-04-09T19:12:20.578Z,4.30
2023-04-09T19:14:48.414Z,4.50
2023-04-09T19:17:16.117Z,4.67
2023-04-09T19:19:43.977Z,4.17
2023-04-09T19:22:11.602Z,4.63
2023-04-09T19:24:39.354Z,5.77
2023-04-09T19:27:07.080Z,5.87
2023-04-09T19:29:34.882Z,6.67
2023-04-09T19:32:03.672Z,11.13
2023-04-09T19:34:33.666Z,7.07
2023-04-09T19:37:02.943Z,8.53
2023-04-09T19:39:31.428Z,9.03
2023-04-09T19:41:59.244Z,6.23
2023-04-09T19:44:26.807Z,7.00
2023-04-09T19:46:54.750Z,5.60
2023-04-09T19:49:23.295Z,6.33
2023-04-09T19:51:51.163Z,5.57
2023-04-09T19:54:22.154Z,6.37
2023-04-09T19:56:50.816Z,5.50
2023-04-09T19:59:20.732Z,7.13
2023-04-09T20:01:49.397Z,19.40
2023-04-09T20:04:22.345Z,5.33
2023-04-09T20:09:44.163Z,5.77
2023-04-09T20:12:12.343Z,6.20
2023-04-09T20:14:40.022Z,5.77
2023-04-09T20:17:07.799Z,7.07
2023-04-09T20:19:36.435Z,6.47
2023-04-09T20:22:04.702Z,7.10
2023-04-09T20:24:36.901Z,7.70
2023-04-09T20:27:05.273Z,6.57
2023-04-09T20:29:33.859Z,6.67
2023-04-09T20:32:01.806Z,5.80
2023-04-09T20:34:29.982Z,6.27
2023-04-09T20:37:02.285Z,5.90
2023-04-09T20:39:32.886Z,6.50
2023-04-09T20:42:00.912Z,6.10
2023-04-09T20:44:29.077Z,7.63
2023-04-09T20:46:56.710Z,5.80
2023-04-09T20:49:24.264Z,6.00
2023-04-09T20:51:51.904Z,5.57
2023-04-09T20:54:19.420Z,5.93
2023-04-09T20:56:46.982Z,6.93
2023-04-09T20:59:16.280Z,6.30
2023-04-09T21:01:44.025Z,7.13
2023-04-09T21:04:11.833Z,8.03
2023-04-09T21:06:39.532Z,7.13
2023-04-09T21:09:07.038Z,7.83
2023-04-09T21:11:34.706Z,6.27
2023-04-09T21:14:02.209Z,8.43
2023-04-09T21:16:29.848Z,7.50
2023-04-09T21:18:57.490Z,7.20
2023-04-09T21:21:25.362Z,6.33
2023-04-09T21:23:52.872Z,8.20
2023-04-09T21:26:20.456Z,8.53
2023-04-09T21:28:47.934Z,11.23
2023-04-09T21:31:15.537Z,9.57
2023-04-09T21:33:43.061Z,8.93
2023-04-09T21:36:10.658Z,7.27
2023-04-09T21:38:38.199Z,9.47
2023-04-09T21:41:05.927Z,7.57
2023-04-09T21:43:33.473Z,9.07
2023-04-09T21:46:01.152Z,9.40
2023-04-09T21:48:28.655Z,9.27
2023-04-09T21:50:56.167Z,14.40
2023-04-09T21:53:23.711Z,6.97
2023-04-09T21:55:51.320Z,8.13
2023-04-09T21:58:18.871Z,9.30
2023-04-09T22:00:46.425Z,9.80
2023-04-09T22:03:14.167Z,8.07
2023-04-09T22:05:42.088Z,9.00
2023-04-09T22:08:09.578Z,8.93
2023-04-09T22:10:37.190Z,10.13
2023-04-09T22:13:04.738Z,10.43
2023-04-09T22:15:32.467Z,10.37
2023-04-09T22:18:00.062Z,8.97
2023-04-09T22:20:27.708Z,10.07
2023-04-09T22:22:55.403Z,10.20
2023-04-09T22:25:23.108Z,10.03
2023-04-09T22:27:51.522Z,11.20
2023-04-09T22:30:19.446Z,10.47
2023-04-09T22:32:47.127Z,12.13
2023-04-09T22:35:14.706Z,10.50
2023-04-09T22:37:42.210Z,11.80
2023-04-09T22:40:10.084Z,10.63
2023-04-09T22:42:37.623Z,10.13
2023-04-09T22:45:05.318Z,11.00
2023-04-09T22:47:32.865Z,13.03
2023-04-09T22:50:00.533Z,10.57
2023-04-09T22:52:28.098Z,12.17
2023-04-09T22:54:55.682Z,12.33
2023-04-09T22:57:23.242Z,10.40
2023-04-09T22:59:50.867Z,12.63
2023-04-09T23:02:18.482Z,11.03
2023-04-09T23:04:46.118Z,10.87
2023-04-09T23:07:13.687Z,10.90
2023-04-09T23:09:41.318Z,10.77
2023-04-09T23:12:08.845Z,11.03
2023-04-09T23:14:36.395Z,9.00
2023-04-09T23:17:03.944Z,11.00
2023-04-09T23:19:31.536Z,11.30
2023-04-09T23:21:59.023Z,8.87
2023-04-09T23:24:26.706Z,14.53
2023-04-09T23:26:54.223Z,14.60
2023-04-09T23:29:21.807Z,12.03
2023-04-09T23:31:49.319Z,11.13
2023-04-09T23:34:16.889Z,11.30
2023-04-09T23:36:44.374Z,11.80
2023-04-09T23:39:11.963Z,13.50
2023-04-09T23:41:39.465Z,10.40
2023-04-09T23:44:07.034Z,9.37
2023-04-09T23:46:34.527Z,12.47
2023-04-09T23:49:02.143Z,13.30
2023-04-09T23:51:29.744Z,11.73
2023-04-09T23:53:57.313Z,11.97
2023-04-09T23:56:24.845Z,10.23
2023-04-09T23:58:52.428Z,15.37
